CMB822 Details

Departure: Grantley Adams International Airport (TBPB)
Arrival: Patrick Air Force Base (KCOF)
Route: BGI UA555 ILURI A555 COY SJU RTE6 BEANO Y290 HAGIT Y352 ZQA A555 ZBV BR57V WIERS BR22V FLL LBV COSTR3
Notes: USTRANSCOM CONTRACT FLIGHT


Current Weather Information
TBPB 250200Z 11014KT 9999 SCT024 27/23 Q1014 NOSIG
KCOF 250156Z AUTO 08007KT 10SM CLR 25/21 A3011 RMK AO2 SLP201 T02500209 $